Time;durP1;ratioP1;P1;durP2;ratioP2;P2;SDS_P1;SDS_P2;PMS_P1;PMS_P2;Temp;Humidity;BMP_temperature;BMP_pressure;BME280_temperature;BME280_humidity;BME280_pressure;Samples;Min_cycle;Max_cycle;Signal;HPM_P1;HPM_P2
2023/07/03 00:00:12;;;;;;;6.77;4.33;;;17.00;91.10;;;;;;5047507;28;20190;-62
2023/07/03 00:02:38;;;;;;;8.13;5.13;;;17.00;90.90;;;;;;5047921;28;20256;-61
2023/07/03 00:05:06;;;;;;;6.50;5.13;;;17.00;90.90;;;;;;5047300;28;20465;-61
2023/07/03 00:07:32;;;;;;;11.00;4.93;;;17.00;91.40;;;;;;5047712;28;20704;-62
2023/07/03 00:09:58;;;;;;;6.10;4.27;;;17.00;92.10;;;;;;5047783;28;20203;-64
2023/07/03 00:12:23;;;;;;;9.73;5.00;;;17.00;91.70;;;;;;5051069;28;20207;-64
2023/07/03 00:14:49;;;;;;;7.37;4.50;;;17.00;91.50;;;;;;5045066;28;20242;-62
2023/07/03 00:17:15;;;;;;;6.57;4.93;;;16.90;91.60;;;;;;5048145;28;20202;-61
2023/07/03 00:19:41;;;;;;;10.50;5.23;;;16.90;91.80;;;;;;5048229;28;20194;-62
2023/07/03 00:22:06;;;;;;;5.30;3.90;;;16.80;92.00;;;;;;5054295;28;20225;-62
2023/07/03 00:24:32;;;;;;;8.53;4.93;;;16.80;93.00;;;;;;5047092;28;20692;-61
2023/07/03 00:26:58;;;;;;;8.67;4.40;;;16.80;93.30;;;;;;5047019;28;20739;-62
2023/07/03 00:29:24;;;;;;;7.07;5.30;;;16.70;93.40;;;;;;5047188;28;20203;-62
2023/07/03 00:31:50;;;;;;;7.23;4.83;;;16.70;94.10;;;;;;5046941;28;20233;-62
2023/07/03 00:34:16;;;;;;;7.47;4.80;;;16.70;93.70;;;;;;5046639;28;20332;-62
2023/07/03 00:36:41;;;;;;;8.93;4.40;;;16.80;93.60;;;;;;5046732;28;20201;-62
2023/07/03 00:39:08;;;;;;;7.93;5.20;;;16.80;93.60;;;;;;5047356;28;20254;-62
2023/07/03 00:41:34;;;;;;;7.63;5.20;;;16.80;93.80;;;;;;5047591;28;20202;-62
2023/07/03 00:44:00;;;;;;;8.47;5.40;;;16.70;94.30;;;;;;5047849;28;20194;-62
2023/07/03 00:46:26;;;;;;;8.40;4.37;;;16.70;94.10;;;;;;5047828;28;20252;-62
2023/07/03 00:48:51;;;;;;;9.27;4.90;;;16.70;94.00;;;;;;5045439;28;20198;-61
2023/07/03 00:51:18;;;;;;;8.03;4.77;;;16.70;94.50;;;;;;5046496;28;20673;-62
2023/07/03 00:53:44;;;;;;;8.97;5.30;;;16.60;94.40;;;;;;5046647;28;20234;-62
2023/07/03 00:56:11;;;;;;;7.57;4.90;;;16.70;94.60;;;;;;5046436;28;20222;-62
2023/07/03 00:58:37;;;;;;;7.60;5.53;;;16.60;94.80;;;;;;5046840;28;20214;-62
2023/07/03 01:01:35;;;;;;;8.53;5.07;;;16.50;95.20;;;;;;5044973;28;20437;-63
2023/07/03 01:04:06;;;;;;;9.37;5.40;;;16.50;96.20;;;;;;5045312;28;20201;-63
2023/07/03 01:06:43;;;;;;;10.47;5.70;;;16.50;96.30;;;;;;5046356;28;20284;-62
2023/07/03 01:09:12;;;;;;;7.97;4.93;;;16.50;96.20;;;;;;5044832;28;20226;-63
2023/07/03 01:11:38;;;;;;;7.57;4.87;;;16.50;96.70;;;;;;5047091;28;20214;-62
2023/07/03 01:14:06;;;;;;;10.87;5.07;;;16.50;96.50;;;;;;5047918;28;20850;-62
2023/07/03 01:16:32;;;;;;;9.53;4.93;;;16.40;96.90;;;;;;5047810;28;20206;-62
2023/07/03 01:18:59;;;;;;;8.77;5.60;;;16.40;97.50;;;;;;5045882;28;20205;-62
2023/07/03 01:21:45;;;;;;;10.50;4.67;;;16.40;98.50;;;;;;5047795;28;20202;-62
2023/07/03 01:24:30;;;;;;;7.77;5.20;;;16.40;98.40;;;;;;5045033;28;20199;-62
2023/07/03 01:26:56;;;;;;;9.30;5.23;;;16.40;98.70;;;;;;5044703;28;20277;-62
2023/07/03 01:29:23;;;;;;;8.07;5.43;;;16.40;99.10;;;;;;5046967;28;20289;-62
2023/07/03 01:31:50;;;;;;;8.40;5.00;;;16.50;99.60;;;;;;5044069;28;20196;-62
2023/07/03 01:34:17;;;;;;;11.70;5.63;;;16.50;99.30;;;;;;5046129;28;20238;-63
2023/07/03 01:36:43;;;;;;;9.10;6.03;;;16.50;99.50;;;;;;5045769;28;20711;-62
2023/07/03 01:39:09;;;;;;;9.60;5.93;;;16.50;99.90;;;;;;5046189;28;20223;-68
2023/07/03 01:41:35;;;;;;;8.73;5.43;;;16.50;99.90;;;;;;5046216;28;20198;-66
2023/07/03 01:44:01;;;;;;;10.00;5.30;;;16.50;99.90;;;;;;5045513;28;20203;-64
2023/07/03 01:46:27;;;;;;;11.57;6.30;;;16.50;99.90;;;;;;5049316;28;20691;-64
2023/07/03 01:48:52;;;;;;;9.30;5.20;;;16.40;99.90;;;;;;5053954;28;20601;-67
2023/07/03 01:51:43;;;;;;;11.07;5.60;;;16.50;99.90;;;;;;5046630;28;20221;-63
2023/07/03 01:54:20;;;;;;;9.10;5.33;;;16.40;99.90;;;;;;5046335;28;20201;-62
2023/07/03 01:56:50;;;;;;;7.50;4.63;;;16.40;99.90;;;;;;5044544;28;20202;-62
2023/07/03 01:59:20;;;;;;;10.70;5.67;;;16.40;99.90;;;;;;5046929;28;20278;-62
2023/07/03 02:02:11;;;;;;;6.97;4.60;;;16.40;99.90;;;;;;5046731;28;20198;-62
2023/07/03 02:04:44;;;;;;;12.33;5.50;;;16.40;99.90;;;;;;5045929;28;20566;-62
2023/07/03 02:07:11;;;;;;;7.93;4.77;;;16.50;99.90;;;;;;5044020;28;20286;-62
2023/07/03 02:09:39;;;;;;;8.17;5.13;;;16.50;99.90;;;;;;5046801;28;20210;-62
2023/07/03 02:12:06;;;;;;;7.23;5.20;;;16.60;99.90;;;;;;5046725;28;20205;-62
2023/07/03 02:14:34;;;;;;;11.47;5.83;;;16.60;99.90;;;;;;5046323;28;20206;-62
2023/07/03 02:17:03;;;;;;;12.57;5.17;;;16.60;99.90;;;;;;5046262;28;20194;-62
2023/07/03 02:19:28;;;;;;;8.63;5.10;;;16.70;99.90;;;;;;5045972;28;20669;-62
2023/07/03 02:21:56;;;;;;;8.83;5.60;;;16.60;99.90;;;;;;5045659;28;20198;-62
2023/07/03 02:24:22;;;;;;;8.40;5.00;;;16.60;99.90;;;;;;5048081;28;20268;-62
2023/07/03 02:26:48;;;;;;;9.67;5.37;;;16.60;99.90;;;;;;5049699;28;20665;-62
2023/07/03 02:29:13;;;;;;;8.53;5.60;;;16.60;99.90;;;;;;5048051;28;20203;-62
2023/07/03 02:31:39;;;;;;;7.70;6.57;;;16.60;99.90;;;;;;5055746;28;20699;-62
2023/07/03 02:34:04;;;;;;;7.97;4.97;;;16.60;99.90;;;;;;5043399;28;20213;-62
2023/07/03 02:36:33;;;;;;;7.43;5.27;;;16.60;99.90;;;;;;5050892;28;20548;-62
2023/07/03 02:39:01;;;;;;;6.30;4.80;;;16.60;99.90;;;;;;5048977;28;20230;-62
2023/07/03 02:41:27;;;;;;;6.43;5.10;;;16.60;99.90;;;;;;5047344;28;20198;-63
2023/07/03 02:43:52;;;;;;;11.03;5.90;;;16.50;99.90;;;;;;5049344;28;20205;-62
2023/07/03 02:46:18;;;;;;;8.90;5.50;;;16.50;99.90;;;;;;5057554;28;20281;-62
2023/07/03 02:48:44;;;;;;;10.87;6.03;;;16.50;99.90;;;;;;5048551;28;20199;-62
2023/07/03 02:51:09;;;;;;;8.07;5.70;;;16.50;99.90;;;;;;5047164;28;20589;-62
2023/07/03 02:53:34;;;;;;;10.33;5.83;;;16.60;99.90;;;;;;5052885;28;20198;-63
2023/07/03 02:56:00;;;;;;;9.27;5.80;;;16.60;99.90;;;;;;5045763;28;20207;-62
2023/07/03 02:58:26;;;;;;;8.00;5.53;;;16.60;99.90;;;;;;5048390;28;20286;-63
2023/07/03 03:00:53;;;;;;;6.87;5.20;;;16.60;99.90;;;;;;5049315;28;20205;-63
2023/07/03 03:03:18;;;;;;;10.07;6.23;;;16.50;99.90;;;;;;5048997;28;20198;-63
2023/07/03 03:05:44;;;;;;;8.30;5.63;;;16.50;99.90;;;;;;5047078;28;20552;-63
2023/07/03 03:08:11;;;;;;;8.03;6.03;;;16.50;99.90;;;;;;5047962;28;20224;-62
2023/07/03 03:10:37;;;;;;;8.93;5.57;;;16.40;99.90;;;;;;5048859;28;20206;-63
2023/07/03 03:13:02;;;;;;;10.40;6.23;;;16.50;99.90;;;;;;5051606;28;20198;-63
2023/07/03 03:15:30;;;;;;;10.33;5.50;;;16.40;99.90;;;;;;5049003;28;20809;-63
2023/07/03 03:17:55;;;;;;;6.47;5.27;;;16.40;99.90;;;;;;5042468;28;20199;-62
2023/07/03 03:20:21;;;;;;;7.03;5.40;;;16.40;99.90;;;;;;5048655;28;20226;-62
2023/07/03 03:22:46;;;;;;;10.97;6.13;;;16.40;99.90;;;;;;5049158;28;20195;-62
2023/07/03 03:25:12;;;;;;;7.47;6.07;;;16.30;99.90;;;;;;5058284;28;20206;-62
2023/07/03 03:27:37;;;;;;;8.97;5.50;;;16.30;99.90;;;;;;5051116;28;20647;-62
2023/07/03 03:30:03;;;;;;;7.23;4.87;;;16.40;99.90;;;;;;5048655;28;20198;-62
2023/07/03 03:32:30;;;;;;;11.00;5.43;;;16.40;99.90;;;;;;5046936;28;20206;-62
2023/07/03 03:34:55;;;;;;;10.57;5.60;;;16.40;99.90;;;;;;5048504;28;20840;-62
2023/07/03 03:37:21;;;;;;;9.63;5.90;;;16.40;99.90;;;;;;5057027;28;20202;-60
2023/07/03 03:39:46;;;;;;;7.97;5.67;;;16.40;99.90;;;;;;5042925;28;20221;-60
2023/07/03 03:42:12;;;;;;;9.30;5.97;;;16.40;99.90;;;;;;5048158;28;20589;-60
2023/07/03 03:44:38;;;;;;;10.37;5.40;;;16.40;99.90;;;;;;5048951;28;20214;-60
2023/07/03 03:47:04;;;;;;;7.93;5.57;;;16.50;99.90;;;;;;5048471;28;20263;-60
2023/07/03 03:49:30;;;;;;;8.33;4.70;;;16.50;99.90;;;;;;5048436;28;20751;-61
2023/07/03 03:51:56;;;;;;;7.87;5.50;;;16.50;99.90;;;;;;5047282;28;20225;-62
2023/07/03 03:54:21;;;;;;;10.53;5.30;;;16.60;99.90;;;;;;5047129;28;20693;-61
2023/07/03 03:56:47;;;;;;;9.60;4.87;;;16.70;99.90;;;;;;5047693;28;20191;-62
2023/07/03 03:59:13;;;;;;;10.53;5.33;;;16.70;99.90;;;;;;5047458;28;20685;-63
2023/07/03 04:01:38;;;;;;;8.40;5.90;;;16.70;99.90;;;;;;5044768;28;20222;-62
2023/07/03 04:04:04;;;;;;;6.60;5.13;;;16.80;99.90;;;;;;5048002;28;20195;-62
2023/07/03 04:06:30;;;;;;;9.17;5.63;;;16.80;99.90;;;;;;5048013;28;20254;-62
2023/07/03 04:08:58;;;;;;;10.47;5.70;;;16.80;99.90;;;;;;5048077;28;21035;-62
2023/07/03 04:11:25;;;;;;;9.67;5.97;;;16.90;99.90;;;;;;5048027;28;20297;-62
2023/07/03 04:13:50;;;;;;;9.70;5.70;;;16.90;99.90;;;;;;5045646;28;20202;-62
2023/07/03 04:16:16;;;;;;;7.90;5.90;;;16.90;99.90;;;;;;5046820;28;20214;-63
2023/07/03 04:18:41;;;;;;;10.33;5.60;;;16.90;99.90;;;;;;5047428;28;20644;-63
2023/07/03 04:21:07;;;;;;;7.67;5.03;;;16.80;99.90;;;;;;5046935;28;20191;-62
2023/07/03 04:23:32;;;;;;;11.27;5.30;;;16.90;99.90;;;;;;5045333;28;20617;-63
2023/07/03 04:25:59;;;;;;;8.17;5.10;;;16.90;99.90;;;;;;5045269;28;20207;-68
2023/07/03 04:28:24;;;;;;;9.00;5.67;;;17.00;99.90;;;;;;5047359;28;20257;-64
2023/07/03 04:30:50;;;;;;;8.80;5.13;;;16.90;99.90;;;;;;5047117;28;20290;-64
2023/07/03 04:33:16;;;;;;;7.90;5.20;;;17.00;99.90;;;;;;5047215;28;20202;-61
2023/07/03 04:35:41;;;;;;;11.33;5.80;;;17.00;99.90;;;;;;5048474;28;20206;-63
2023/07/03 04:38:07;;;;;;;9.97;5.77;;;17.10;99.90;;;;;;5045554;28;20244;-63
2023/07/03 04:40:34;;;;;;;9.13;5.60;;;17.00;99.90;;;;;;5046539;28;20696;-62
2023/07/03 04:43:00;;;;;;;7.13;5.00;;;17.10;99.90;;;;;;5046035;28;20552;-62
2023/07/03 04:45:26;;;;;;;12.40;6.90;;;17.10;99.90;;;;;;5046264;28;20597;-69
2023/07/03 04:47:52;;;;;;;8.17;6.00;;;17.00;99.90;;;;;;5045869;28;20202;-62
2023/07/03 04:50:20;;;;;;;14.50;6.80;;;17.00;99.90;;;;;;5046360;28;20207;-63
2023/07/03 04:52:47;;;;;;;12.17;5.83;;;17.00;99.90;;;;;;5060991;28;20292;-63
2023/07/03 04:55:13;;;;;;;11.37;6.00;;;17.00;99.90;;;;;;5060391;28;20246;-61
2023/07/03 04:57:40;;;;;;;10.43;6.50;;;17.00;99.90;;;;;;5057688;28;20215;-62
2023/07/03 05:00:15;;;;;;;9.90;6.47;;;17.10;99.90;;;;;;5054772;28;20240;-62
2023/07/03 05:02:42;;;;;;;14.17;5.83;;;17.10;99.90;;;;;;5044554;28;20202;-62
2023/07/03 05:05:10;;;;;;;8.77;5.60;;;17.10;99.90;;;;;;5054625;28;20238;-61
2023/07/03 05:07:36;;;;;;;12.67;6.73;;;17.10;99.90;;;;;;5045388;28;20973;-62
2023/07/03 05:10:02;;;;;;;10.07;6.23;;;17.10;99.90;;;;;;5045520;28;20198;-61
2023/07/03 05:12:27;;;;;;;11.43;5.93;;;17.10;99.90;;;;;;5047678;28;20211;-64
2023/07/03 05:14:53;;;;;;;10.33;6.67;;;17.20;99.90;;;;;;5048386;28;20360;-63
2023/07/03 05:17:19;;;;;;;10.13;6.20;;;17.20;99.90;;;;;;5044322;28;20210;-63
2023/07/03 05:19:48;;;;;;;11.43;6.73;;;17.20;99.90;;;;;;5046910;28;20758;-63
2023/07/03 05:22:14;;;;;;;11.60;7.00;;;17.30;99.90;;;;;;5045249;28;20222;-64
2023/07/03 05:24:39;;;;;;;13.77;6.93;;;17.30;99.90;;;;;;5049107;28;20198;-62
2023/07/03 05:27:05;;;;;;;8.73;6.43;;;17.30;99.90;;;;;;5055030;28;20271;-61
2023/07/03 05:29:32;;;;;;;11.93;6.70;;;17.30;99.90;;;;;;5042237;28;20194;-62
2023/07/03 05:32:00;;;;;;;8.37;6.57;;;17.30;99.90;;;;;;5042686;28;20203;-62
2023/07/03 05:34:26;;;;;;;7.13;5.47;;;17.50;99.90;;;;;;5045104;28;20215;-63
2023/07/03 05:36:51;;;;;;;9.70;6.40;;;17.50;99.90;;;;;;5046664;28;20661;-62
2023/07/03 05:39:17;;;;;;;15.60;7.33;;;17.50;99.90;;;;;;5040767;28;20223;-62
2023/07/03 05:41:42;;;;;;;13.40;6.30;;;17.60;99.90;;;;;;5046035;28;20283;-61
2023/07/03 05:44:08;;;;;;;11.20;6.53;;;17.60;99.90;;;;;;5045764;28;20190;-62
2023/07/03 05:46:33;;;;;;;7.67;5.67;;;17.70;99.90;;;;;;5045971;28;20766;-61
2023/07/03 05:48:59;;;;;;;12.40;6.93;;;17.80;99.90;;;;;;5045627;28;20244;-61
2023/07/03 05:51:24;;;;;;;9.83;7.00;;;17.70;99.90;;;;;;5045745;28;20235;-61
2023/07/03 05:53:50;;;;;;;9.40;6.33;;;17.80;99.90;;;;;;5045813;28;20252;-61
2023/07/03 05:56:16;;;;;;;10.17;6.40;;;17.80;99.90;;;;;;5045580;28;20298;-61
2023/07/03 05:58:42;;;;;;;12.40;6.37;;;17.90;99.90;;;;;;5050402;28;20284;-61
2023/07/03 06:01:08;;;;;;;7.60;5.57;;;17.90;99.90;;;;;;5052483;28;20199;-61
2023/07/03 06:03:33;;;;;;;11.23;6.17;;;17.90;99.90;;;;;;5059915;28;20590;-61
2023/07/03 06:05:59;;;;;;;9.87;5.83;;;17.80;99.90;;;;;;5060075;28;20252;-61
2023/07/03 06:08:24;;;;;;;8.33;5.37;;;17.90;99.90;;;;;;5057882;28;20206;-61
2023/07/03 06:10:52;;;;;;;10.10;6.07;;;18.00;99.90;;;;;;5059731;28;20198;-62
2023/07/03 06:13:17;;;;;;;9.87;5.97;;;18.00;99.90;;;;;;5059532;28;20622;-61
2023/07/03 06:15:43;;;;;;;7.17;5.07;;;18.00;99.90;;;;;;5059214;28;20218;-61
2023/07/03 06:18:08;;;;;;;14.57;6.60;;;18.10;99.30;;;;;;5059491;28;20222;-61
2023/07/03 06:20:34;;;;;;;10.80;5.63;;;18.10;99.30;;;;;;5044456;28;20234;-61
2023/07/03 06:23:00;;;;;;;11.80;5.50;;;18.10;99.30;;;;;;5049779;28;20207;-61
2023/07/03 06:25:25;;;;;;;11.97;5.30;;;18.20;99.20;;;;;;5049849;28;20663;-61
2023/07/03 06:27:51;;;;;;;9.43;4.77;;;18.20;99.00;;;;;;5049979;28;21070;-61
2023/07/03 06:30:17;;;;;;;12.03;5.80;;;18.20;99.20;;;;;;5051438;28;20723;-62
2023/07/03 06:32:43;;;;;;;10.40;5.50;;;18.20;99.30;;;;;;5049162;28;20678;-62
2023/07/03 06:35:08;;;;;;;9.90;5.43;;;18.20;99.30;;;;;;5047303;28;20244;-62
2023/07/03 06:37:34;;;;;;;12.23;5.77;;;18.10;99.80;;;;;;5050527;28;20209;-62
2023/07/03 06:40:00;;;;;;;14.80;5.67;;;18.10;99.90;;;;;;5047558;28;20222;-62
2023/07/03 06:42:25;;;;;;;15.50;5.57;;;18.20;99.80;;;;;;5048542;28;20249;-62
2023/07/03 06:44:51;;;;;;;9.00;5.73;;;18.30;99.90;;;;;;5048849;28;20195;-62
2023/07/03 06:47:16;;;;;;;9.63;5.37;;;18.30;99.60;;;;;;5048100;28;20609;-62
2023/07/03 06:49:42;;;;;;;7.23;5.07;;;18.40;99.50;;;;;;5049900;28;20200;-62
2023/07/03 06:52:09;;;;;;;8.33;5.20;;;18.20;99.90;;;;;;5049828;28;20236;-62
2023/07/03 06:54:35;;;;;;;10.47;5.17;;;18.10;99.90;;;;;;5049345;28;20215;-62
2023/07/03 06:57:00;;;;;;;10.40;5.67;;;18.20;99.90;;;;;;5046513;28;20203;-62
2023/07/03 06:59:26;;;;;;;8.17;5.37;;;18.30;99.60;;;;;;5049995;28;20200;-62
2023/07/03 07:01:51;;;;;;;11.93;5.30;;;18.30;99.90;;;;;;5048930;28;20195;-62
2023/07/03 07:04:17;;;;;;;8.13;5.10;;;18.20;99.90;;;;;;5046549;28;20270;-62
2023/07/03 07:06:42;;;;;;;11.70;6.00;;;18.20;99.90;;;;;;5048439;28;20195;-62
2023/07/03 07:09:08;;;;;;;10.23;5.47;;;18.30;99.90;;;;;;5046410;28;20239;-62
2023/07/03 07:11:35;;;;;;;7.77;5.40;;;18.40;99.90;;;;;;5047288;28;20307;-62
2023/07/03 07:14:03;;;;;;;11.93;5.43;;;18.40;99.90;;;;;;5049576;28;20960;-62
2023/07/03 07:16:31;;;;;;;12.00;5.10;;;18.40;99.90;;;;;;5049041;28;20218;-72
2023/07/03 07:19:00;;;;;;;11.70;8.03;;;18.50;99.30;;;;;;5045598;28;20206;-64
2023/07/03 07:21:26;;;;;;;9.73;6.03;;;18.60;99.50;;;;;;5052164;28;20811;-64
2023/07/03 07:23:58;;;;;;;11.10;5.57;;;18.50;99.10;;;;;;5062509;28;20195;-62
2023/07/03 07:26:30;;;;;;;10.63;5.10;;;18.50;99.30;;;;;;5045894;28;20294;-62
2023/07/03 07:28:56;;;;;;;15.07;5.63;;;18.60;98.70;;;;;;5052246;28;20277;-62
2023/07/03 07:31:24;;;;;;;13.17;5.30;;;18.50;98.70;;;;;;5048166;28;20237;-62
2023/07/03 07:33:50;;;;;;;11.77;5.27;;;18.50;98.90;;;;;;5046762;28;20267;-62
2023/07/03 07:36:19;;;;;;;11.20;5.83;;;18.60;98.90;;;;;;5048765;28;20241;-63
2023/07/03 07:38:45;;;;;;;12.43;5.43;;;18.50;99.00;;;;;;5048726;28;20223;-63
2023/07/03 07:41:11;;;;;;;9.33;4.90;;;18.60;98.90;;;;;;5046619;28;20939;-63
2023/07/03 07:43:37;;;;;;;9.60;5.40;;;18.50;99.80;;;;;;5047360;28;20239;-63
2023/07/03 07:46:03;;;;;;;9.70;4.90;;;18.40;99.50;;;;;;5046884;28;20199;-62
2023/07/03 07:48:29;;;;;;;9.60;6.17;;;18.40;99.90;;;;;;5047638;28;20639;-62
2023/07/03 07:50:54;;;;;;;13.00;5.30;;;18.40;99.90;;;;;;5051966;28;20235;-62
2023/07/03 07:53:20;;;;;;;10.93;5.33;;;18.60;99.70;;;;;;5056805;28;20309;-63
2023/07/03 07:55:46;;;;;;;10.90;5.77;;;18.80;99.60;;;;;;5042599;28;20742;-63
2023/07/03 07:58:11;;;;;;;12.33;5.93;;;18.80;99.90;;;;;;5050637;28;20199;-64
2023/07/03 08:00:39;;;;;;;12.23;5.73;;;18.90;99.60;;;;;;5053164;28;20208;-62
2023/07/03 08:03:04;;;;;;;8.23;5.40;;;18.90;99.40;;;;;;5045019;28;20207;-63
2023/07/03 08:05:31;;;;;;;10.97;4.80;;;19.10;98.90;;;;;;5059734;28;20208;-62
2023/07/03 08:07:56;;;;;;;12.57;5.17;;;19.30;98.70;;;;;;5065642;28;20197;-62
2023/07/03 08:10:22;;;;;;;12.00;5.93;;;19.20;99.20;;;;;;5055423;28;20211;-63
2023/07/03 08:12:47;;;;;;;10.13;5.13;;;19.30;98.10;;;;;;5064304;28;20231;-68
2023/07/03 08:15:13;;;;;;;10.13;4.63;;;19.40;97.90;;;;;;5065481;28;20229;-69
2023/07/03 08:17:38;;;;;;;13.03;5.37;;;19.20;98.10;;;;;;5064158;28;20556;-68
2023/07/03 08:20:11;;;;;;;12.17;5.60;;;19.20;98.40;;;;;;5064689;28;20207;-68
2023/07/03 08:22:38;;;;;;;11.77;5.60;;;19.20;97.80;;;;;;5053888;28;20238;-69
2023/07/03 08:25:05;;;;;;;6.47;4.53;;;19.40;97.70;;;;;;5055204;28;20241;-68
2023/07/03 08:27:30;;;;;;;10.13;4.83;;;19.40;97.30;;;;;;5056662;28;20715;-68
2023/07/03 08:29:56;;;;;;;10.73;5.20;;;19.30;96.70;;;;;;5055704;28;20800;-67
2023/07/03 08:32:22;;;;;;;9.47;4.53;;;19.40;96.30;;;;;;5057100;28;20206;-69
2023/07/03 08:34:48;;;;;;;10.37;4.63;;;19.20;95.80;;;;;;5059472;28;20215;-66
2023/07/03 08:37:13;;;;;;;13.13;4.70;;;19.20;96.00;;;;;;5062366;28;20209;-68
2023/07/03 08:39:39;;;;;;;9.23;4.63;;;19.20;96.50;;;;;;5056531;28;20210;-72
2023/07/03 08:42:33;;;;;;;9.97;5.27;;;19.20;96.20;;;;;;5061060;28;20252;-75
2023/07/03 08:45:01;;;;;;;9.87;5.40;;;19.20;96.10;;;;;;5053074;28;20256;-69
2023/07/03 08:47:29;;;;;;;11.87;5.33;;;19.30;95.80;;;;;;5058514;28;20567;-72
2023/07/03 08:49:57;;;;;;;6.87;4.10;;;19.40;96.30;;;;;;5054799;28;20230;-75
2023/07/03 08:52:35;;;;;;;6.30;3.83;;;19.50;96.50;;;;;;5048891;28;20849;-76
2023/07/03 08:55:03;;;;;;;7.97;4.43;;;19.60;94.60;;;;;;5058360;28;20216;-68
2023/07/03 08:57:30;;;;;;;12.57;4.90;;;19.60;93.60;;;;;;5054898;28;20226;-68
2023/07/03 08:59:56;;;;;;;12.07;4.53;;;19.60;93.80;;;;;;5056089;28;20456;-68
2023/07/03 09:02:40;;;;;;;10.47;4.67;;;19.80;93.00;;;;;;5054363;28;20215;-69
2023/07/03 09:05:32;;;;;;;6.93;4.10;;;19.80;92.40;;;;;;5055755;28;20199;-68
2023/07/03 09:08:13;;;;;;;10.97;4.30;;;19.90;92.70;;;;;;5057026;28;20649;-68
2023/07/03 09:10:44;;;;;;;8.97;4.40;;;20.00;91.00;;;;;;5047758;28;20707;-68
2023/07/03 09:13:22;;;;;;;5.27;4.00;;;20.10;91.00;;;;;;5056474;28;20232;-68
2023/07/03 09:16:09;;;;;;;11.23;3.73;;;20.20;88.50;;;;;;5062307;28;20324;-70
2023/07/03 09:18:41;;;;;;;9.40;3.77;;;20.20;86.50;;;;;;5064995;28;20196;-74
2023/07/03 09:21:07;;;;;;;9.17;3.90;;;20.20;86.50;;;;;;5067025;28;20214;-67
2023/07/03 09:23:39;;;;;;;10.97;3.87;;;20.40;81.10;;;;;;5063103;28;20209;-70
2023/07/03 09:26:27;;;;;;;8.47;3.50;;;20.50;80.70;;;;;;5062246;28;20216;-71
2023/07/03 09:28:58;;;;;;;6.70;3.23;;;20.60;78.50;;;;;;5063814;28;20213;-66
2023/07/03 09:31:25;;;;;;;7.83;4.27;;;20.50;81.40;;;;;;5061775;28;20630;-66
2023/07/03 09:33:51;;;;;;;7.80;3.70;;;20.50;81.60;;;;;;5061982;28;20714;-68
2023/07/03 09:36:37;;;;;;;7.63;3.43;;;20.50;80.10;;;;;;5057127;28;20272;-70
2023/07/03 09:39:17;;;;;;;9.37;4.10;;;20.50;78.60;;;;;;5064738;28;20217;-71
2023/07/03 09:41:42;;;;;;;8.17;3.93;;;20.40;77.80;;;;;;5060891;28;20565;-70
2023/07/03 09:44:12;;;;;;;5.70;3.67;;;20.30;76.40;;;;;;5067771;28;20200;-71
2023/07/03 09:46:39;;;;;;;6.97;3.17;;;20.40;80.40;;;;;;5063952;28;20626;-67
2023/07/03 09:49:08;;;;;;;6.17;3.73;;;20.60;81.60;;;;;;5063483;28;20202;-74
2023/07/03 09:51:37;;;;;;;5.97;3.73;;;20.60;77.80;;;;;;5063712;28;20200;-73
2023/07/03 09:54:07;;;;;;;7.00;3.80;;;20.80;79.00;;;;;;5062898;28;20749;-73
2023/07/03 09:56:33;;;;;;;10.50;4.00;;;20.60;78.10;;;;;;5065621;28;20221;-72
2023/07/03 09:59:04;;;;;;;6.40;3.27;;;20.70;79.20;;;;;;5058737;28;20201;-70
2023/07/03 10:01:37;;;;;;;5.70;3.60;;;20.70;79.00;;;;;;5060396;28;20293;-70
2023/07/03 10:04:04;;;;;;;9.77;3.73;;;20.80;76.80;;;;;;5059756;28;20196;-70
2023/07/03 10:06:30;;;;;;;4.20;3.40;;;20.90;74.80;;;;;;5056446;28;20201;-73
2023/07/03 10:09:13;;;;;;;6.17;2.90;;;20.70;77.70;;;;;;5066024;28;20327;-71
2023/07/03 10:11:51;;;;;;;5.87;3.17;;;20.60;74.80;;;;;;5063138;28;20347;-67
2023/07/03 10:14:30;;;;;;;7.03;2.97;;;20.60;74.40;;;;;;5064267;28;20231;-69
2023/07/03 10:16:56;;;;;;;11.70;3.27;;;20.70;74.00;;;;;;5063185;28;20208;-73
2023/07/03 10:19:24;;;;;;;5.70;3.40;;;20.70;76.60;;;;;;5063469;28;20213;-71
2023/07/03 10:21:51;;;;;;;6.13;3.30;;;20.70;74.90;;;;;;5062785;28;20675;-71
2023/07/03 10:24:20;;;;;;;7.17;3.60;;;20.70;74.80;;;;;;5067671;28;20606;-71
2023/07/03 10:26:53;;;;;;;10.77;3.10;;;20.60;76.10;;;;;;5059884;28;20197;-71
2023/07/03 10:29:41;;;;;;;7.77;3.53;;;20.80;73.40;;;;;;5057143;28;20203;-69
2023/07/03 10:32:20;;;;;;;6.40;3.67;;;20.80;75.60;;;;;;5051267;28;20197;-69
2023/07/03 10:35:13;;;;;;;10.37;3.47;;;20.70;74.80;;;;;;5055093;28;20212;-69
2023/07/03 10:37:55;;;;;;;7.17;3.20;;;21.00;74.60;;;;;;5055849;28;20594;-69
2023/07/03 10:40:32;;;;;;;6.83;3.70;;;21.00;73.60;;;;;;5054022;28;20722;-69
2023/07/03 10:43:02;;;;;;;9.57;3.33;;;21.10;71.50;;;;;;5053409;28;20205;-70
2023/07/03 10:45:31;;;;;;;6.30;2.87;;;21.10;71.40;;;;;;5057359;28;20467;-69
2023/07/03 10:48:12;;;;;;;5.87;3.17;;;21.30;74.00;;;;;;5056995;28;20271;-70
2023/07/03 10:51:05;;;;;;;6.90;3.53;;;21.10;74.50;;;;;;5061298;28;20198;-70
2023/07/03 10:53:37;;;;;;;7.50;3.17;;;21.00;75.10;;;;;;5066295;28;20711;-72
2023/07/03 10:56:28;;;;;;;12.17;3.60;;;21.10;74.00;;;;;;5058998;28;20722;-74
2023/07/03 10:59:24;;;;;;;6.40;3.37;;;21.10;74.30;;;;;;5046818;28;20208;-73
2023/07/03 11:02:17;;;;;;;7.20;3.50;;;21.20;72.30;;;;;;5066504;28;20197;-73
2023/07/03 11:05:05;;;;;;;9.90;2.90;;;21.00;71.40;;;;;;5065335;28;20224;-74
2023/07/03 11:07:47;;;;;;;6.70;2.77;;;20.90;71.30;;;;;;5061971;28;20601;-73
2023/07/03 11:10:22;;;;;;;7.67;3.40;;;20.90;73.10;;;;;;5066532;28;20276;-76
2023/07/03 11:13:10;;;;;;;6.97;2.97;;;20.80;73.60;;;;;;5060697;28;20953;-72
2023/07/03 11:16:13;;;;;;;9.83;3.27;;;20.80;78.30;;;;;;5046795;28;20819;-69
2023/07/03 11:19:10;;;;;;;6.43;2.80;;;20.90;74.70;;;;;;5060333;28;20305;-69
2023/07/03 11:22:02;;;;;;;9.50;2.80;;;20.80;78.90;;;;;;5053974;28;20250;-72
2023/07/03 11:24:53;;;;;;;7.53;3.97;;;20.90;80.00;;;;;;5058628;28;20212;-72
2023/07/03 11:27:22;;;;;;;9.23;3.93;;;21.40;79.10;;;;;;5059567;28;20202;-71
2023/07/03 11:29:48;;;;;;;6.77;2.90;;;21.70;74.70;;;;;;5060638;28;20640;-73
2023/07/03 11:32:14;;;;;;;5.23;3.43;;;21.50;75.30;;;;;;5061378;28;20238;-70
2023/07/03 11:34:40;;;;;;;7.67;3.33;;;21.40;74.30;;;;;;5048711;28;20783;-72
2023/07/03 11:37:40;;;;;;;9.33;3.00;;;20.80;76.60;;;;;;5051417;28;20198;-68
2023/07/03 11:40:34;;;;;;;9.30;2.97;;;20.50;77.10;;;;;;5065427;28;20745;-74
2023/07/03 11:43:09;;;;;;;10.40;3.47;;;20.40;77.30;;;;;;5062166;28;20286;-72
2023/07/03 11:45:37;;;;;;;9.23;3.00;;;20.50;76.80;;;;;;5065807;28;21015;-68
2023/07/03 11:48:17;;;;;;;5.77;2.50;;;20.70;76.90;;;;;;5062187;28;20561;-69
2023/07/03 11:50:53;;;;;;;7.53;2.60;;;20.90;76.80;;;;;;5065999;28;20321;-75
2023/07/03 11:53:34;;;;;;;8.90;3.30;;;21.20;77.60;;;;;;5060631;28;20241;-69
2023/07/03 11:56:01;;;;;;;10.37;4.20;;;21.50;76.00;;;;;;5059993;28;20231;-71
2023/07/03 11:58:30;;;;;;;6.90;3.40;;;22.20;75.10;;;;;;5060321;28;20201;-69
2023/07/03 12:01:21;;;;;;;6.27;2.87;;;22.60;74.00;;;;;;5055411;28;20228;-73
2023/07/03 12:04:00;;;;;;;7.63;2.83;;;22.20;73.90;;;;;;5060484;28;20295;-70
2023/07/03 12:06:38;;;;;;;7.90;3.20;;;21.80;74.70;;;;;;5062439;28;20679;-73
2023/07/03 12:09:49;;;;;;;10.00;3.23;;;21.20;77.20;;;;;;5060934;28;20304;-74
2023/07/03 12:12:21;;;;;;;8.50;3.20;;;20.80;78.90;;;;;;5061457;28;20217;-83
2023/07/03 12:15:00;;;;;;;6.97;2.60;;;20.70;79.90;;;;;;5064715;28;20706;-69
2023/07/03 12:17:28;;;;;;;5.43;3.40;;;20.80;77.60;;;;;;5064314;28;20496;-68
2023/07/03 12:20:07;;;;;;;9.97;3.47;;;20.70;73.50;;;;;;5062321;28;20199;-69
2023/07/03 12:22:41;;;;;;;9.77;3.00;;;20.70;73.50;;;;;;5049385;28;20262;-69
2023/07/03 12:25:17;;;;;;;5.97;3.10;;;20.60;72.90;;;;;;5047489;28;20255;-69
2023/07/03 12:27:43;;;;;;;5.53;2.67;;;20.60;74.40;;;;;;5043341;28;20201;-69
2023/07/03 12:30:24;;;;;;;15.70;3.60;;;20.50;76.10;;;;;;5047546;28;20201;-69
2023/07/03 12:32:54;;;;;;;9.20;3.07;;;20.40;76.40;;;;;;5052862;28;20203;-77
2023/07/03 12:35:28;;;;;;;7.23;2.83;;;20.40;76.10;;;;;;5053699;28;20223;-77
2023/07/03 12:38:06;;;;;;;9.63;4.13;;;20.60;78.00;;;;;;5032769;28;20202;-74
2023/07/03 12:40:39;;;;;;;9.57;3.57;;;20.60;77.80;;;;;;5055489;28;20221;-75
2023/07/03 12:43:09;;;;;;;7.30;3.20;;;20.80;80.00;;;;;;5043983;28;20556;-74
2023/07/03 12:45:35;;;;;;;9.83;3.13;;;20.80;79.30;;;;;;5046132;28;20199;-69
2023/07/03 12:48:22;;;;;;;8.03;3.10;;;20.70;78.70;;;;;;5050839;28;20609;-73
2023/07/03 12:50:55;;;;;;;11.50;3.60;;;20.70;80.30;;;;;;5046843;28;20223;-71
2023/07/03 12:53:21;;;;;;;7.27;3.37;;;20.70;79.70;;;;;;5052876;28;20208;-72
2023/07/03 12:55:53;;;;;;;9.50;3.13;;;20.80;80.60;;;;;;5055221;28;20206;-73